Time;durP1;ratioP1;P1;durP2;ratioP2;P2;SDS_P1;SDS_P2;PMS_P1;PMS_P2;Temp;Humidity;BMP_temperature;BMP_pressure;BME280_temperature;BME280_humidity;BME280_pressure;Samples;Min_cycle;Max_cycle;Signal;HPM_P1;HPM_P2
2023/12/22 00:00:20;;;;;;;2.47;0.95;;;;;;;5.97;100.00;91911.88;2123664;27;20110;-79
2023/12/22 00:01:24;;;;;;;4.47;0.85;;;;;;;5.85;100.00;91913.28;2115198;28;20730;-78
2023/12/22 00:02:25;;;;;;;3.00;1.40;;;;;;;5.96;100.00;91903.19;2114965;28;20061;-78
2023/12/22 00:03:26;;;;;;;1.88;1.00;;;;;;;5.97;100.00;91931.22;2115408;28;20764;-79
2023/12/22 00:04:27;;;;;;;1.38;0.98;;;;;;;5.96;100.00;91929.69;2115221;28;20028;-79
2023/12/22 00:05:28;;;;;;;2.95;1.13;;;;;;;5.96;100.00;91950.91;2115107;28;20020;-78
2023/12/22 00:06:29;;;;;;;3.25;0.70;;;;;;;5.88;100.00;91980.63;2115370;28;20459;-80
2023/12/22 00:07:30;;;;;;;2.60;1.30;;;;;;;5.91;100.00;91924.88;2106634;28;20031;-78
2023/12/22 00:08:31;;;;;;;2.20;0.98;;;;;;;6.00;100.00;91950.84;2115186;28;20023;-78
2023/12/22 00:09:32;;;;;;;5.07;1.25;;;;;;;5.85;100.00;91953.06;2116206;27;20472;-80
2023/12/22 00:10:32;;;;;;;3.50;0.85;;;;;;;5.69;100.00;91961.00;2123602;27;20483;-82
2023/12/22 00:11:34;;;;;;;3.83;1.00;;;;;;;5.77;100.00;91955.13;2116757;27;20019;-80
2023/12/22 00:12:35;;;;;;;4.65;1.08;;;;;;;5.91;100.00;91983.22;2115653;28;20031;-78
2023/12/22 00:13:36;;;;;;;7.03;1.20;;;;;;;5.89;100.00;91998.06;2116802;27;20816;-78
2023/12/22 00:14:40;;;;;;;3.38;0.98;;;;;;;5.86;100.00;91975.75;2116710;27;20027;-80
2023/12/22 00:15:42;;;;;;;2.80;1.05;;;;;;;5.98;100.00;91977.03;2121483;27;20024;-77
2023/12/22 00:16:43;;;;;;;6.07;1.52;;;;;;;5.88;100.00;91978.72;2116475;27;20058;-78
2023/12/22 00:17:44;;;;;;;3.83;0.82;;;;;;;5.74;100.00;91990.41;2114629;28;20383;-79
2023/12/22 00:18:45;;;;;;;3.72;0.90;;;;;;;5.88;100.00;91970.78;2119751;27;20027;-80
2023/12/22 00:19:46;;;;;;;3.25;1.00;;;;;;;5.87;100.00;91957.94;2115632;28;20073;-79
2023/12/22 00:20:46;;;;;;;3.13;1.05;;;;;;;5.78;100.00;91977.81;2122228;27;20030;-78
2023/12/22 00:21:47;;;;;;;5.85;1.30;;;;;;;5.84;100.00;91972.00;2119156;27;20046;-81
2023/12/22 00:22:48;;;;;;;4.63;1.35;;;;;;;5.69;100.00;91963.66;2115690;27;20467;-80
2023/12/22 00:23:49;;;;;;;3.25;0.98;;;;;;;5.72;100.00;91965.47;2122856;27;20494;-82
2023/12/22 00:24:50;;;;;;;2.17;1.05;;;;;;;5.79;100.00;91994.47;2107762;28;20020;-80
2023/12/22 00:25:51;;;;;;;4.03;1.17;;;;;;;5.68;100.00;91973.50;2119303;27;20575;-82
2023/12/22 00:26:52;;;;;;;2.42;1.10;;;;;;;5.66;100.00;91972.41;2114709;28;20034;-80
2023/12/22 00:27:53;;;;;;;3.10;1.10;;;;;;;5.78;100.00;91977.81;2114920;28;20024;-83
2023/12/22 00:28:54;;;;;;;4.47;0.90;;;;;;;5.70;100.00;91955.25;2123685;27;20023;-78
2023/12/22 00:29:55;;;;;;;2.10;0.80;;;;;;;5.72;100.00;91944.28;2123303;27;20019;-81
2023/12/22 00:30:56;;;;;;;5.50;1.48;;;;;;;5.78;100.00;91943.34;2123595;27;20019;-79
2023/12/22 00:31:57;;;;;;;4.30;1.23;;;;;;;5.71;100.00;91942.78;2123618;27;20370;-82
2023/12/22 00:32:58;;;;;;;3.45;0.90;;;;;;;5.79;100.00;91936.91;2123486;27;20023;-80
2023/12/22 00:34:00;;;;;;;4.53;1.13;;;;;;;5.81;100.00;91944.44;2106644;28;20035;-79
2023/12/22 00:35:02;;;;;;;6.63;1.00;;;;;;;5.75;100.00;91943.41;2107112;27;20170;-82
2023/12/22 00:36:03;;;;;;;6.15;1.30;;;;;;;5.61;100.00;91962.31;2115351;28;20650;-82
2023/12/22 00:37:04;;;;;;;2.45;1.00;;;;;;;5.79;100.00;91957.34;2114941;28;20024;-82
2023/12/22 00:38:05;;;;;;;4.18;1.27;;;;;;;5.90;100.00;91946.50;2114655;28;20099;-77
2023/12/22 00:39:07;;;;;;;4.10;1.10;;;;;;;5.90;100.00;91941.22;2113369;28;20040;-82
2023/12/22 00:40:09;;;;;;;4.72;1.00;;;;;;;5.69;100.00;91934.47;2117304;27;20544;-80
2023/12/22 00:41:10;;;;;;;4.03;0.82;;;;;;;5.71;100.00;91940.13;2107675;27;20035;-83
2023/12/22 00:42:12;;;;;;;4.05;0.98;;;;;;;5.84;100.00;91945.50;2104784;28;20028;-81
2023/12/22 00:43:12;;;;;;;1.73;0.80;;;;;;;5.79;100.00;91952.03;2106476;28;20500;-83
2023/12/22 00:44:13;;;;;;;4.15;0.98;;;;;;;5.66;100.00;91948.56;2115708;27;20027;-80
2023/12/22 00:45:14;;;;;;;3.72;1.40;;;;;;;5.90;100.00;91947.25;2115511;27;20033;-82
2023/12/22 00:46:16;;;;;;;3.75;0.93;;;;;;;5.84;100.00;91972.00;2112683;28;20080;-79
2023/12/22 00:47:17;;;;;;;2.47;0.95;;;;;;;5.79;100.00;91965.31;2122653;27;20069;-82
2023/12/22 00:48:18;;;;;;;2.08;0.57;;;;;;;5.73;100.00;91966.97;2122898;27;20383;-78
2023/12/22 00:49:21;;;;;;;0.98;0.60;;;;;;;5.70;100.00;91962.47;2113863;28;20598;-78
2023/12/22 00:50:22;;;;;;;1.83;0.55;;;;;;;5.66;100.00;91964.47;2109645;28;20044;-79
2023/12/22 00:51:26;;;;;;;0.80;0.70;;;;;;;5.63;100.00;91966.03;2115039;27;20069;-80
2023/12/22 00:52:27;;;;;;;2.83;0.85;;;;;;;5.70;100.00;91949.22;2115002;28;20409;-79
2023/12/22 00:53:27;;;;;;;1.60;0.68;;;;;;;5.51;100.00;91951.53;2115150;27;20133;-79
2023/12/22 00:54:31;;;;;;;1.23;0.60;;;;;;;5.60;100.00;91950.22;2111837;28;20381;-83
2023/12/22 00:55:32;;;;;;;5.35;1.10;;;;;;;5.66;100.00;91943.25;2105667;28;20368;-81
2023/12/22 00:56:33;;;;;;;1.95;0.90;;;;;;;5.72;100.00;91952.97;2114765;28;20023;-82
2023/12/22 00:57:34;;;;;;;2.70;0.88;;;;;;;5.64;100.00;91978.13;2123409;27;20034;-79
2023/12/22 00:58:35;;;;;;;2.97;0.90;;;;;;;5.73;100.00;91951.06;2114482;28;20160;-80
2023/12/22 00:59:36;;;;;;;4.57;1.00;;;;;;;5.77;100.00;91949.06;2106048;28;20036;-80
2023/12/22 01:00:37;;;;;;;3.53;0.93;;;;;;;5.82;100.00;91961.84;2106149;28;20028;-81
2023/12/22 01:01:38;;;;;;;2.40;0.98;;;;;;;5.90;100.00;91967.72;2113085;28;20034;-79
2023/12/22 01:02:39;;;;;;;3.05;0.80;;;;;;;5.79;100.00;91949.38;2121941;27;20468;-80
2023/12/22 01:03:40;;;;;;;3.42;0.68;;;;;;;5.60;100.00;91966.13;2122240;27;20204;-78
2023/12/22 01:04:41;;;;;;;4.93;1.10;;;;;;;5.73;100.00;91948.41;2114760;28;20034;-80
2023/12/22 01:05:42;;;;;;;1.90;0.85;;;;;;;5.65;100.00;91947.06;2106370;28;20023;-80
2023/12/22 01:06:43;;;;;;;2.47;0.93;;;;;;;5.68;100.00;91943.59;2097985;28;20024;-79
2023/12/22 01:07:44;;;;;;;2.45;0.88;;;;;;;5.72;100.00;91942.34;2106502;28;20028;-79
2023/12/22 01:08:45;;;;;;;1.35;0.68;;;;;;;5.49;100.00;91937.22;2105889;28;20188;-81
2023/12/22 01:09:46;;;;;;;2.45;0.70;;;;;;;5.62;100.00;91932.75;2111553;28;20382;-79
2023/12/22 01:10:47;;;;;;;1.50;0.70;;;;;;;5.79;100.00;91928.19;2123329;27;20019;-79
2023/12/22 01:11:48;;;;;;;4.15;0.70;;;;;;;5.67;100.00;91931.50;2111171;28;20333;-81
2023/12/22 01:12:49;;;;;;;2.95;0.70;;;;;;;5.72;100.00;91931.00;2106341;28;20028;-80
2023/12/22 01:13:50;;;;;;;1.83;0.60;;;;;;;5.75;100.00;91933.59;2114639;28;20384;-80
2023/12/22 01:14:51;;;;;;;1.02;0.70;;;;;;;5.66;100.00;91941.34;2114626;28;20035;-80
2023/12/22 01:15:53;;;;;;;2.45;0.60;;;;;;;5.71;100.00;91948.09;2114489;27;20030;-80
2023/12/22 01:16:54;;;;;;;3.47;0.93;;;;;;;5.78;100.00;91951.31;2116239;27;20038;-78
2023/12/22 01:17:55;;;;;;;1.70;0.68;;;;;;;5.73;100.00;91938.53;2099664;28;20430;-81
2023/12/22 01:18:56;;;;;;;2.85;0.70;;;;;;;5.84;100.00;91927.72;2113766;28;20016;-78
2023/12/22 01:19:57;;;;;;;2.30;0.80;;;;;;;5.67;100.00;91939.47;2123177;27;20026;-78
2023/12/22 01:20:58;;;;;;;0.77;0.70;;;;;;;5.63;100.00;91952.06;2114715;28;20023;-80
2023/12/22 01:21:59;;;;;;;1.27;0.60;;;;;;;5.55;100.00;91954.84;2117795;27;20016;-82
2023/12/22 01:23:00;;;;;;;1.35;0.63;;;;;;;5.60;100.00;91960.81;2122046;27;20102;-80
2023/12/22 01:24:00;;;;;;;1.92;0.50;;;;;;;5.53;100.00;91951.88;2120704;27;20670;-77
2023/12/22 01:25:02;;;;;;;3.00;0.60;;;;;;;5.51;100.00;91959.47;2126165;27;20019;-77
2023/12/22 01:26:03;;;;;;;2.25;0.60;;;;;;;5.57;100.00;91957.06;2118230;27;20019;-81
2023/12/22 01:27:04;;;;;;;2.20;0.82;;;;;;;5.74;100.00;91974.50;2115344;28;20507;-78
2023/12/22 01:28:05;;;;;;;2.22;0.70;;;;;;;5.64;100.00;91966.78;2114168;28;20187;-81
2023/12/22 01:29:06;;;;;;;2.60;0.80;;;;;;;5.55;100.00;91948.81;2114511;28;20503;-78
2023/12/22 01:30:08;;;;;;;2.58;0.80;;;;;;;5.60;100.00;91980.13;2115142;28;20030;-81
2023/12/22 01:31:09;;;;;;;2.50;0.68;;;;;;;5.75;100.00;91977.88;2122420;27;20335;-80
2023/12/22 01:32:10;;;;;;;2.70;0.77;;;;;;;5.59;100.00;91975.97;2114929;28;20028;-78
2023/12/22 01:33:11;;;;;;;1.27;0.50;;;;;;;5.49;100.00;91976.97;2123150;27;20023;-83
2023/12/22 01:34:12;;;;;;;1.52;0.82;;;;;;;5.44;100.00;91974.78;2119586;27;20709;-78
2023/12/22 01:35:14;;;;;;;1.15;0.70;;;;;;;5.35;100.00;91985.94;2115331;28;20022;-80
2023/12/22 01:36:15;;;;;;;1.77;0.50;;;;;;;5.39;100.00;91981.31;2114619;28;20020;-78
2023/12/22 01:37:16;;;;;;;1.17;0.40;;;;;;;5.34;100.00;91995.03;2123140;27;20030;-79
2023/12/22 01:38:17;;;;;;;1.15;0.50;;;;;;;5.37;100.00;91994.22;2126970;27;20034;-78
2023/12/22 01:39:18;;;;;;;1.52;0.82;;;;;;;5.30;100.00;91992.47;2122666;27;20023;-78
2023/12/22 01:40:19;;;;;;;1.23;0.50;;;;;;;5.47;100.00;91995.91;2122400;27;20130;-82
2023/12/22 01:41:20;;;;;;;0.95;0.50;;;;;;;5.41;100.00;91999.47;2121622;27;20120;-78
2023/12/22 01:42:21;;;;;;;0.38;0.38;;;;;;;5.30;100.00;92013.66;2113943;28;20061;-82
2023/12/22 01:43:23;;;;;;;2.28;0.60;;;;;;;5.38;100.00;91993.06;2122914;27;20035;-79
2023/12/22 01:44:24;;;;;;;1.23;0.40;;;;;;;5.38;100.00;91994.97;2122858;27;20027;-78
2023/12/22 01:45:25;;;;;;;0.70;0.52;;;;;;;5.27;100.00;91993.28;2114296;28;20416;-79
2023/12/22 01:46:26;;;;;;;4.78;0.60;;;;;;;5.23;100.00;92005.13;2119316;27;20023;-80
2023/12/22 01:47:27;;;;;;;3.03;0.50;;;;;;;5.34;100.00;91994.28;2122969;27;20019;-79
2023/12/22 01:48:30;;;;;;;1.77;0.40;;;;;;;5.28;100.00;92012.59;2106206;28;20077;-81
2023/12/22 01:49:31;;;;;;;1.70;0.40;;;;;;;5.24;100.00;91999.41;2114478;28;20069;-80
2023/12/22 01:50:32;;;;;;;0.45;0.40;;;;;;;5.10;100.00;91994.38;2114408;28;20031;-82
2023/12/22 01:51:37;;;;;;;2.55;0.63;;;;;;;5.22;100.00;91998.31;2106674;28;20088;-81
2023/12/22 01:52:39;;;;;;;4.35;0.90;;;;;;;5.28;100.00;91994.03;2109047;28;20034;-78
2023/12/22 01:53:40;;;;;;;2.10;0.93;;;;;;;5.31;100.00;91977.31;2106791;28;20487;-80
2023/12/22 01:54:42;;;;;;;3.65;1.40;;;;;;;5.17;100.00;91996.13;2114684;27;20162;-82
2023/12/22 01:55:45;;;;;;;3.63;0.98;;;;;;;5.38;100.00;91998.38;2114401;28;20059;-79
2023/12/22 01:56:46;;;;;;;3.30;0.90;;;;;;;5.42;100.00;91979.75;2106478;28;20419;-80
2023/12/22 01:57:48;;;;;;;4.10;0.88;;;;;;;5.42;100.00;91974.44;2114435;28;20108;-81
2023/12/22 01:58:55;;;;;;;5.18;1.40;;;;;;;5.42;100.00;91974.44;2105956;28;20020;-80
2023/12/22 01:59:56;;;;;;;2.75;0.80;;;;;;;5.43;100.00;91989.19;2098944;28;20017;-78
2023/12/22 02:00:57;;;;;;;3.65;0.80;;;;;;;5.33;100.00;91979.56;2106078;28;20384;-81
2023/12/22 02:01:58;;;;;;;5.88;1.02;;;;;;;5.33;100.00;91984.84;2106174;28;20131;-78
2023/12/22 02:03:00;;;;;;;4.55;0.88;;;;;;;5.35;100.00;91977.22;2114349;28;20090;-78
2023/12/22 02:04:02;;;;;;;4.43;0.90;;;;;;;5.26;100.00;91986.47;2097091;28;20040;-78
2023/12/22 02:05:04;;;;;;;1.40;0.70;;;;;;;5.38;100.00;91995.72;2109224;28;20076;-79
2023/12/22 02:06:05;;;;;;;3.25;0.90;;;;;;;5.08;100.00;91970.19;2067149;27;23264;-78
2023/12/22 02:07:08;;;;;;;2.95;0.95;;;;;;;5.44;100.00;91995.97;2018581;28;20031;-80
2023/12/22 02:08:11;;;;;;;2.47;0.82;;;;;;;5.42;100.00;92006.25;2014805;28;20119;-78
2023/12/22 02:09:12;;;;;;;4.00;1.23;;;;;;;5.46;100.00;92018.28;2020796;28;20033;-79
2023/12/22 02:10:12;;;;;;;2.13;0.50;;;;;;;5.46;100.00;92025.47;2032110;28;20047;-78
2023/12/22 02:11:16;;;;;;;2.20;0.90;;;;;;;5.26;100.00;92004.28;2036739;27;20019;-80
2023/12/22 02:12:17;;;;;;;2.53;0.73;;;;;;;5.49;100.00;92016.72;2045819;27;20464;-79
2023/12/22 02:13:18;;;;;;;2.33;0.63;;;;;;;5.29;100.00;92022.00;2055357;27;20109;-78
2023/12/22 02:14:20;;;;;;;2.88;0.95;;;;;;;5.29;100.00;92003.47;2050947;28;21610;-78
2023/12/22 02:15:21;;;;;;;1.40;0.80;;;;;;;5.28;100.00;92025.81;2046735;28;20031;-77
2023/12/22 02:16:41;;;;;;;0.80;0.63;;;;;;;5.28;100.00;92026.56;2054491;28;20031;-81
2023/12/22 02:17:54;;;;;;;4.63;0.93;;;;;;;5.36;100.00;92016.59;2070184;27;21798;-78
2023/12/22 02:18:56;;;;;;;2.83;0.90;;;;;;;5.34;100.00;92004.91;2075898;27;20031;-77
2023/12/22 02:19:58;;;;;;;5.07;0.90;;;;;;;5.19;100.00;92042.28;2081779;28;20027;-77
2023/12/22 02:20:59;;;;;;;2.08;1.00;;;;;;;5.17;100.00;92038.53;2085776;28;21004;-79
2023/12/22 02:22:02;;;;;;;4.80;0.80;;;;;;;5.14;100.00;92037.44;2083798;28;20037;-80
2023/12/22 02:23:03;;;;;;;3.67;1.17;;;;;;;5.05;100.00;92035.34;2093385;28;20047;-78
2023/12/22 02:25:09;;;;;;;2.78;1.00;;;;;;;4.49;100.00;92024.59;2130235;27;20184;-79
2023/12/22 02:26:17;;;;;;;6.05;2.60;;;;;;;4.53;100.00;92022.63;2113301;28;20152;-79
2023/12/22 02:27:38;;;;;;;3.85;1.08;;;;;;;4.57;100.00;92024.47;2114361;28;20436;-79
2023/12/22 02:28:40;;;;;;;2.67;1.30;;;;;;;4.62;100.00;92027.41;2120802;28;20023;-80
2023/12/22 02:29:57;;;;;;;4.40;1.15;;;;;;;4.69;100.00;92029.16;2120893;28;20030;-83
2023/12/22 02:31:06;;;;;;;3.20;1.08;;;;;;;4.88;100.00;92025.06;2105679;28;20106;-83
2023/12/22 02:32:13;;;;;;;4.07;0.80;;;;;;;4.98;100.00;92035.47;2106049;28;20089;-79
2023/12/22 02:33:16;;;;;;;2.55;1.13;;;;;;;4.65;100.00;92015.25;2112887;28;20032;-79
2023/12/22 02:34:24;;;;;;;2.42;0.90;;;;;;;4.71;100.00;92021.59;2110498;28;20070;-81
2023/12/22 02:35:27;;;;;;;2.75;1.08;;;;;;;4.82;100.00;92011.53;2121531;28;20502;-80
2023/12/22 02:36:30;;;;;;;5.45;1.45;;;;;;;4.64;100.00;92040.22;2118249;28;20026;-78
2023/12/22 02:37:32;;;;;;;2.97;1.00;;;;;;;4.62;100.00;92027.41;2121432;28;20034;-78
2023/12/22 02:38:34;;;;;;;6.93;1.00;;;;;;;4.54;100.00;92039.25;2122097;27;20456;-79
2023/12/22 02:39:36;;;;;;;2.03;0.90;;;;;;;4.65;100.00;92012.59;2121471;27;20460;-78
2023/12/22 02:40:37;;;;;;;4.55;0.80;;;;;;;4.69;100.00;92021.22;2121502;27;20395;-82
2023/12/22 02:41:39;;;;;;;2.85;0.93;;;;;;;4.72;100.00;92023.81;2112826;28;20049;-82
2023/12/22 02:42:40;;;;;;;6.38;1.33;;;;;;;4.71;100.00;92014.38;2113012;28;20058;-83
2023/12/22 02:43:42;;;;;;;3.78;1.02;;;;;;;4.72;100.00;92005.28;2112863;28;20020;-81
2023/12/22 02:44:43;;;;;;;4.63;1.33;;;;;;;4.75;100.00;92024.91;2112443;28;20116;-80
2023/12/22 02:45:44;;;;;;;3.95;0.90;;;;;;;4.78;100.00;92030.16;2104506;28;20377;-81
2023/12/22 02:46:44;;;;;;;4.20;1.55;;;;;;;4.73;100.00;92020.00;2113032;28;20456;-83
2023/12/22 02:47:46;;;;;;;5.00;1.10;;;;;;;4.80;100.00;92025.19;2112727;28;20024;-81
2023/12/22 02:48:47;;;;;;;2.42;0.80;;;;;;;4.91;100.00;92016.31;2104339;28;20021;-78
2023/12/22 02:49:48;;;;;;;5.47;0.95;;;;;;;4.83;100.00;92033.47;2109029;28;20028;-78
2023/12/22 02:50:49;;;;;;;3.25;1.30;;;;;;;4.77;100.00;92022.59;2111438;28;20103;-81
2023/12/22 02:51:50;;;;;;;5.20;1.02;;;;;;;4.76;100.00;92024.50;2006065;28;20024;-79
2023/12/22 02:52:51;;;;;;;2.63;0.90;;;;;;;4.90;100.00;92017.47;2028452;28;20027;-82
2023/12/22 02:53:52;;;;;;;6.40;1.20;;;;;;;4.92;100.00;92041.66;2030945;28;20040;-83
2023/12/22 02:54:53;;;;;;;4.75;1.08;;;;;;;4.73;100.00;92020.00;2024578;28;20166;-81
2023/12/22 02:55:54;;;;;;;3.05;0.80;;;;;;;4.74;100.00;92031.34;2030590;28;20061;-81
2023/12/22 02:56:55;;;;;;;1.52;0.68;;;;;;;4.69;100.00;92037.09;2045846;27;20116;-77
2023/12/22 02:57:56;;;;;;;2.67;0.60;;;;;;;4.57;100.00;92024.47;2049364;28;20031;-80
2023/12/22 02:58:57;;;;;;;2.08;1.00;;;;;;;4.76;100.00;92026.41;2050199;28;20071;-78
2023/12/22 02:59:58;;;;;;;5.72;0.80;;;;;;;4.78;100.00;92030.16;2053730;28;20042;-79
2023/12/22 03:00:59;;;;;;;3.17;1.27;;;;;;;4.77;100.00;92030.53;2058059;28;20035;-79
2023/12/22 03:02:00;;;;;;;1.40;0.95;;;;;;;4.77;100.00;92025.25;2066018;28;21002;-80
2023/12/22 03:03:01;;;;;;;2.78;1.00;;;;;;;4.64;100.00;92035.69;2088361;28;20122;-81
2023/12/22 03:04:02;;;;;;;3.42;0.90;;;;;;;4.69;100.00;92035.22;2097945;28;20024;-79
2023/12/22 03:05:04;;;;;;;4.68;1.08;;;;;;;4.90;100.00;92036.75;2021742;28;20020;-81
2023/12/22 03:06:05;;;;;;;3.95;1.02;;;;;;;4.78;100.00;92051.34;2036129;28;20035;-79
2023/12/22 03:07:06;;;;;;;2.95;1.10;;;;;;;4.89;100.00;92042.44;2048296;28;20027;-82
2023/12/22 03:08:07;;;;;;;3.63;1.10;;;;;;;4.95;100.00;92009.78;2049841;28;20031;-80
2023/12/22 03:09:08;;;;;;;3.65;0.90;;;;;;;4.90;100.00;92034.09;2052428;28;20099;-78
2023/12/22 03:10:09;;;;;;;4.85;1.15;;;;;;;4.92;100.00;92025.75;2056136;28;20039;-78
2023/12/22 03:11:10;;;;;;;5.85;1.30;;;;;;;4.96;100.00;92035.13;2059615;28;20027;-80
2023/12/22 03:12:11;;;;;;;5.38;1.02;;;;;;;4.97;100.00;92027.94;2070107;28;20101;-78
2023/12/22 03:13:12;;;;;;;6.07;1.20;;;;;;;4.94;100.00;92028.72;2076293;28;20027;-81
2023/12/22 03:14:13;;;;;;;3.45;1.13;;;;;;;5.03;100.00;92042.94;2080068;28;22569;-79
2023/12/22 03:15:14;;;;;;;3.58;1.33;;;;;;;5.07;100.00;92028.88;2084177;28;20479;-80
2023/12/22 03:16:15;;;;;;;4.13;1.50;;;;;;;4.82;100.00;92037.28;2087910;28;20102;-78
2023/12/22 03:17:15;;;;;;;3.15;1.15;;;;;;;4.91;100.00;92054.13;2095661;28;20023;-80
2023/12/22 03:18:16;;;;;;;3.90;1.10;;;;;;;4.87;100.00;92039.44;2098313;28;20028;-80
2023/12/22 03:19:17;;;;;;;4.65;1.42;;;;;;;4.86;100.00;92059.13;2104031;28;20020;-79
2023/12/22 03:20:18;;;;;;;5.82;1.63;;;;;;;5.09;100.00;92056.44;2112863;28;20034;-79
2023/12/22 03:21:20;;;;;;;2.17;1.05;;;;;;;5.02;100.00;92059.97;2113249;28;20035;-81
2023/12/22 03:22:21;;;;;;;2.17;0.95;;;;;;;5.02;100.00;92069.81;2112667;28;20052;-80
2023/12/22 03:23:21;;;;;;;1.52;1.10;;;;;;;4.98;100.00;92061.94;2104146;28;20483;-81
2023/12/22 03:24:23;;;;;;;3.85;0.90;;;;;;;4.88;100.00;92062.88;2103746;28;20436;-80
2023/12/22 03:25:24;;;;;;;5.15;1.73;;;;;;;4.84;100.00;92062.19;2106073;28;20035;-81
2023/12/22 03:26:28;;;;;;;6.90;1.20;;;;;;;5.04;100.00;92062.97;2104880;28;20024;-79
2023/12/22 03:27:29;;;;;;;5.57;1.25;;;;;;;5.01;100.00;92082.31;2107397;28;20028;-80
2023/12/22 03:28:30;;;;;;;8.50;1.92;;;;;;;5.05;100.00;92061.06;2111864;28;20035;-79
2023/12/22 03:29:32;;;;;;;3.90;1.27;;;;;;;4.95;100.00;92059.34;2109733;28;20034;-82
2023/12/22 03:30:35;;;;;;;3.45;0.88;;;;;;;4.91;100.00;92067.34;2103805;28;20036;-77
2023/12/22 03:31:36;;;;;;;5.90;1.25;;;;;;;4.94;100.00;92085.09;2111975;28;20051;-77
2023/12/22 03:32:37;;;;;;;4.60;1.00;;;;;;;4.74;100.00;92068.41;2104167;28;20042;-81
2023/12/22 03:33:38;;;;;;;4.93;1.30;;;;;;;4.58;100.00;92052.44;2104239;28;20035;-79
2023/12/22 03:34:39;;;;;;;6.82;1.45;;;;;;;4.46;100.00;92057.13;2108634;28;20400;-81
2023/12/22 03:35:40;;;;;;;4.85;1.40;;;;;;;4.57;100.00;92077.41;2110491;28;20023;-81
2023/12/22 03:36:41;;;;;;;6.40;1.35;;;;;;;4.41;100.00;92078.78;2097732;28;20020;-79
2023/12/22 03:37:42;;;;;;;2.72;1.08;;;;;;;4.42;100.00;92068.94;2090456;28;20033;-81
2023/12/22 03:38:43;;;;;;;6.78;1.33;;;;;;;4.39;100.00;92051.22;2106839;28;20409;-80
2023/12/22 03:39:44;;;;;;;5.95;1.35;;;;;;;4.39;100.00;92053.84;2107440;28;20047;-79
2023/12/22 03:40:45;;;;;;;2.25;1.10;;;;;;;4.53;100.00;92059.69;2106443;28;20024;-80
2023/12/22 03:41:46;;;;;;;5.90;1.20;;;;;;;4.31;100.00;92055.88;2106939;28;20113;-80
2023/12/22 03:42:46;;;;;;;2.05;0.90;;;;;;;4.46;100.00;92046.56;2106676;28;20048;-79
2023/12/22 03:43:47;;;;;;;4.35;1.02;;;;;;;4.64;100.00;92058.75;2099716;28;20024;-82
2023/12/22 03:44:48;;;;;;;5.80;0.90;;;;;;;4.58;100.00;92028.63;2098350;28;20020;-81
2023/12/22 03:45:49;;;;;;;4.03;1.20;;;;;;;4.59;100.00;92022.16;2092259;28;20067;-79
2023/12/22 03:46:51;;;;;;;4.35;1.17;;;;;;;4.75;100.00;92032.88;2096345;28;20025;-81
2023/12/22 03:47:52;;;;;;;5.22;1.35;;;;;;;4.76;100.00;92024.50;2098586;28;20059;-80
2023/12/22 03:48:53;;;;;;;7.65;1.52;;;;;;;4.70;100.00;92043.91;2106537;28;20496;-83
2023/12/22 03:49:54;;;;;;;7.20;1.15;;;;;;;4.57;100.00;92024.47;2107447;28;20081;-83
2023/12/22 03:50:55;;;;;;;2.03;1.13;;;;;;;4.60;100.00;92047.47;2106492;28;20028;-79
2023/12/22 03:51:56;;;;;;;7.72;1.15;;;;;;;4.47;100.00;92034.06;2106707;28;20024;-79
2023/12/22 03:52:56;;;;;;;4.13;1.30;;;;;;;4.64;100.00;92035.69;2106634;28;20178;-78
2023/12/22 03:53:58;;;;;;;4.47;1.10;;;;;;;4.62;100.00;92030.06;2103547;28;20024;-80
2023/12/22 03:54:58;;;;;;;4.40;1.13;;;;;;;4.51;100.00;92030.22;2105627;28;20104;-82
2023/12/22 03:55:59;;;;;;;6.25;1.23;;;;;;;4.50;100.00;92026.09;2027118;28;20039;-78
2023/12/22 03:57:00;;;;;;;4.05;1.05;;;;;;;4.38;100.00;92023.25;2000388;28;20037;-80
2023/12/22 03:58:03;;;;;;;3.65;1.40;;;;;;;4.23;100.00;92025.41;2013628;28;20109;-81
2023/12/22 03:59:04;;;;;;;5.57;1.23;;;;;;;4.45;100.00;92025.81;2025098;28;20749;-79
2023/12/22 04:00:06;;;;;;;5.22;1.38;;;;;;;4.66;100.00;92036.03;2017049;28;20024;-80
2023/12/22 04:01:07;;;;;;;4.18;1.13;;;;;;;4.62;100.00;92045.94;2029703;28;20028;-81
2023/12/22 04:02:08;;;;;;;5.63;1.08;;;;;;;4.60;100.00;92026.31;2038696;28;20032;-78
2023/12/22 04:03:09;;;;;;;5.35;1.00;;;;;;;4.49;100.00;92040.47;2040127;28;20814;-80
2023/12/22 04:04:10;;;;;;;5.60;1.20;;;;;;;4.39;100.00;92037.97;2044369;28;20119;-80
2023/12/22 04:05:11;;;;;;;3.85;1.05;;;;;;;4.49;100.00;92035.19;2045346;28;20493;-80
2023/12/22 04:06:12;;;;;;;2.78;0.88;;;;;;;4.47;100.00;92026.88;2049841;28;20042;-81
2023/12/22 04:07:13;;;;;;;5.38;1.48;;;;;;;4.41;100.00;92012.63;2045723;28;20172;-78
2023/12/22 04:08:14;;;;;;;5.57;1.10;;;;;;;4.43;100.00;92031.47;2049102;28;20100;-80
2023/12/22 04:09:15;;;;;;;6.80;1.35;;;;;;;4.44;100.00;92019.03;2070758;28;20024;-79
2023/12/22 04:10:17;;;;;;;4.07;0.85;;;;;;;4.35;100.00;92039.97;2078627;28;20035;-82
2023/12/22 04:11:18;;;;;;;6.57;1.25;;;;;;;4.41;100.00;92028.50;2072899;28;20024;-80
2023/12/22 04:12:19;;;;;;;4.30;1.30;;;;;;;4.41;100.00;92035.69;2095977;28;20028;-83
2023/12/22 04:13:20;;;;;;;4.45;0.90;;;;;;;4.31;100.00;92032.06;2100621;28;20027;-78
2023/12/22 04:14:21;;;;;;;4.95;1.20;;;;;;;4.29;100.00;92044.94;2106305;28;20098;-80
2023/12/22 04:15:22;;;;;;;8.80;1.17;;;;;;;4.31;100.00;92032.06;2106625;28;20039;-79
2023/12/22 04:16:23;;;;;;;5.60;1.23;;;;;;;4.19;100.00;92030.00;2106390;28;20032;-81
2023/12/22 04:17:24;;;;;;;4.28;1.30;;;;;;;4.24;100.00;92035.56;2106046;28;20036;-82
2023/12/22 04:18:24;;;;;;;3.40;0.70;;;;;;;4.27;100.00;92052.53;2098422;28;20025;-81
2023/12/22 04:19:26;;;;;;;5.18;1.02;;;;;;;4.33;100.00;92045.63;2098194;28;20024;-84
2023/12/22 04:20:27;;;;;;;3.67;0.90;;;;;;;4.23;100.00;92036.72;2098428;28;20059;-81
2023/12/22 04:21:28;;;;;;;5.20;1.23;;;;;;;4.36;100.00;92030.88;2097979;28;20134;-79
2023/12/22 04:22:29;;;;;;;3.05;1.20;;;;;;;4.36;100.00;92055.41;2098530;28;20039;-82
2023/12/22 04:23:30;;;;;;;2.53;0.73;;;;;;;4.26;100.00;92057.09;2098466;28;20032;-84
2023/12/22 04:24:31;;;;;;;3.28;1.00;;;;;;;4.29;100.00;92045.69;2097706;28;20067;-81
2023/12/22 04:25:32;;;;;;;3.10;0.85;;;;;;;4.20;100.00;92036.78;2105700;28;20032;-82
2023/12/22 04:26:33;;;;;;;2.92;1.00;;;;;;;4.32;100.00;92033.56;2106125;28;20028;-82
2023/12/22 04:27:34;;;;;;;5.35;1.23;;;;;;;4.25;100.00;92049.53;2089838;28;20033;-80
2023/12/22 04:28:36;;;;;;;2.15;0.77;;;;;;;4.19;100.00;92051.16;2089450;28;20025;-80
2023/12/22 04:29:37;;;;;;;4.57;1.13;;;;;;;4.25;100.00;92057.47;2098416;28;20088;-80
2023/12/22 04:30:38;;;;;;;5.22;0.93;;;;;;;4.25;100.00;92050.28;2106379;28;20036;-78
2023/12/22 04:31:39;;;;;;;5.22;1.60;;;;;;;4.23;100.00;92041.28;2106117;28;20067;-81
2023/12/22 04:32:39;;;;;;;4.10;1.02;;;;;;;4.29;100.00;92044.94;2100839;28;20474;-78
2023/12/22 04:33:40;;;;;;;2.28;1.02;;;;;;;4.35;100.00;92043.34;2095377;28;20040;-81
2023/12/22 04:34:41;;;;;;;1.42;0.68;;;;;;;4.31;100.00;92047.94;2098183;28;20094;-84
2023/12/22 04:35:42;;;;;;;4.22;1.13;;;;;;;4.42;100.00;92053.06;2106359;28;20028;-80
2023/12/22 04:36:54;;;;;;;3.60;0.68;;;;;;;4.30;100.00;92051.72;2101559;28;20484;-80
2023/12/22 04:37:55;;;;;;;2.85;1.05;;;;;;;4.27;100.00;92032.13;2105095;28;20028;-80
2023/12/22 04:38:56;;;;;;;6.75;1.13;;;;;;;4.21;100.00;92043.56;2098719;28;20024;-80
2023/12/22 04:39:57;;;;;;;3.40;1.70;;;;;;;4.13;100.00;92052.75;2095502;28;20070;-81
2023/12/22 04:40:57;;;;;;;3.13;0.77;;;;;;;4.22;100.00;92029.19;2089065;28;20075;-81
2023/12/22 04:41:58;;;;;;;7.75;1.23;;;;;;;4.28;100.00;92049.47;2091467;28;20029;-79
2023/12/22 04:42:59;;;;;;;3.55;1.00;;;;;;;4.21;100.00;92049.59;2081503;28;20021;-79
2023/12/22 04:44:03;;;;;;;4.82;1.02;;;;;;;4.30;100.00;92070.25;2093993;28;20025;-81
2023/12/22 04:45:04;;;;;;;5.93;1.30;;;;;;;4.10;100.00;92059.59;2106249;28;20103;-81
2023/12/22 04:46:05;;;;;;;5.13;1.55;;;;;;;4.23;100.00;92060.53;2106371;28;20031;-79
2023/12/22 04:47:06;;;;;;;2.53;1.15;;;;;;;4.22;100.00;92076.81;2106944;28;20051;-82
2023/12/22 04:48:07;;;;;;;5.85;1.60;;;;;;;4.28;100.00;92059.31;2097083;28;20539;-79
2023/12/22 04:49:07;;;;;;;6.25;1.70;;;;;;;4.28;100.00;92051.38;2097850;28;20028;-78
2023/12/22 04:50:09;;;;;;;4.18;1.42;;;;;;;4.36;100.00;92060.72;2100723;28;20031;-80
2023/12/22 04:51:09;;;;;;;4.28;1.02;;;;;;;4.38;100.00;92057.66;2097933;28;20082;-80